Time;durP1;ratioP1;P1;durP2;ratioP2;P2;SDS_P1;SDS_P2;PMS_P1;PMS_P2;Temp;Humidity;BMP_temperature;BMP_pressure;BME280_temperature;BME280_humidity;BME280_pressure;Samples;Min_cycle;Max_cycle;Signal;HPM_P1;HPM_P2
2021/11/12 00:15:00;;;;;;;34.25;20.77;;;;;;;;;;5074270;28;20032;-82
2021/11/12 00:17:28;;;;;;;34.10;20.75;;;;;;;;;;5066015;28;20396;-83
2021/11/12 00:19:55;;;;;;;40.78;22.80;;;;;;;;;;5051854;28;20060;-83
2021/11/12 00:22:23;;;;;;;37.78;21.58;;;;;;;;;;5051607;28;20171;-84
2021/11/12 00:24:50;;;;;;;39.97;23.33;;;;;;;;;;5052112;28;20025;-83
2021/11/12 00:27:16;;;;;;;39.60;21.67;;;;;;;;;;5053064;28;20059;-82
2021/11/12 00:29:57;;;;;;;41.65;23.17;;;;;;;;;;5050437;28;20053;-82
2021/11/12 00:35:01;;;;;;;38.58;22.55;;;;;;;;;;5074465;28;20482;-84
2021/11/12 00:40:29;;;;;;;38.63;22.42;;;;;;;;;;5027560;28;20494;-82
2021/11/12 00:45:26;;;;;;;38.80;23.33;;;;;;;;;;5065113;28;20028;-84
2021/11/12 00:55:39;;;;;;;39.45;23.00;;;;;;;;;;5067978;28;20545;-84
2021/11/12 00:58:05;;;;;;;42.17;23.85;;;;;;;;;;5070313;28;20540;-82
2021/11/12 01:00:31;;;;;;;42.35;25.15;;;;;;;;;;5053613;28;20021;-82
2021/11/12 01:02:56;;;;;;;43.13;23.90;;;;;;;;;;5048159;28;20090;-82
2021/11/12 01:05:22;;;;;;;45.00;25.02;;;;;;;;;;5069045;28;20031;-82
2021/11/12 01:07:48;;;;;;;44.45;26.13;;;;;;;;;;5054231;28;20411;-82
2021/11/12 01:10:15;;;;;;;46.60;26.45;;;;;;;;;;5069845;28;20054;-82
2021/11/12 01:12:42;;;;;;;48.25;25.70;;;;;;;;;;5066206;28;20043;-83
2021/11/12 01:15:12;;;;;;;45.00;25.55;;;;;;;;;;5051917;28;20050;-82
2021/11/12 01:17:41;;;;;;;52.58;26.23;;;;;;;;;;5054133;28;20035;-83
2021/11/12 01:20:08;;;;;;;44.40;25.60;;;;;;;;;;5064422;28;20020;-84
2021/11/12 01:22:34;;;;;;;44.08;25.48;;;;;;;;;;5052707;28;20054;-81
2021/11/12 01:25:05;;;;;;;43.80;24.52;;;;;;;;;;5066573;28;20032;-83
2021/11/12 01:27:32;;;;;;;45.67;25.80;;;;;;;;;;5050414;28;20051;-82
2021/11/12 01:29:58;;;;;;;45.42;25.00;;;;;;;;;;5073625;28;20029;-84
2021/11/12 01:32:26;;;;;;;47.85;26.08;;;;;;;;;;5048760;28;20046;-82
2021/11/12 01:34:54;;;;;;;42.53;25.55;;;;;;;;;;5052634;28;20025;-81
2021/11/12 01:37:23;;;;;;;44.58;24.75;;;;;;;;;;5057416;28;20046;-82
2021/11/12 01:39:53;;;;;;;42.53;24.85;;;;;;;;;;5065760;28;20024;-83
2021/11/12 01:42:20;;;;;;;43.20;26.10;;;;;;;;;;5057347;28;20028;-82
2021/11/12 01:44:54;;;;;;;43.60;24.35;;;;;;;;;;5065029;28;20509;-84
2021/11/12 01:49:56;;;;;;;46.75;25.65;;;;;;;;;;5070263;28;20020;-82
2021/11/12 01:57:49;;;;;;;38.75;23.70;;;;;;;;;;5069948;28;20043;-83
2021/11/12 02:00:16;;;;;;;;;;;;;;;;;;5061837;28;20438;-82
2021/11/12 02:02:42;;;;;;;43.75;22.85;;;;;;;;;;5047958;28;19920;-82
2021/11/12 02:05:08;;;;;;;41.97;23.25;;;;;;;;;;5061612;28;20115;-83
2021/11/12 02:07:35;;;;;;;40.72;24.27;;;;;;;;;;5064037;28;20041;-83
2021/11/12 02:10:06;;;;;;;41.70;22.75;;;;;;;;;;5047812;28;20059;-83
2021/11/12 02:12:41;;;;;;;44.53;24.63;;;;;;;;;;5071019;28;20028;-82
2021/11/12 02:15:07;;;;;;;42.25;23.55;;;;;;;;;;5066657;28;20102;-82
2021/11/12 02:17:35;;;;;;;36.17;23.15;;;;;;;;;;5052457;28;20507;-82
2021/11/12 02:20:23;;;;;;;38.97;22.33;;;;;;;;;;5066354;28;20491;-83
2021/11/12 02:22:53;;;;;;;39.97;22.77;;;;;;;;;;5050026;28;20501;-81
2021/11/12 02:25:28;;;;;;;37.95;22.52;;;;;;;;;;5054532;28;20382;-82
2021/11/12 02:27:57;;;;;;;40.25;22.40;;;;;;;;;;5052775;28;20143;-82
2021/11/12 02:30:29;;;;;;;43.38;22.15;;;;;;;;;;5069225;28;20107;-82
2021/11/12 02:33:02;;;;;;;40.13;22.13;;;;;;;;;;5069183;28;20029;-82
2021/11/12 02:35:30;;;;;;;35.75;21.23;;;;;;;;;;5052985;28;20040;-82
2021/11/12 02:37:56;;;;;;;36.85;21.00;;;;;;;;;;5061814;28;20395;-82
2021/11/12 02:40:21;;;;;;;41.67;21.40;;;;;;;;;;5057247;28;20021;-84
2021/11/12 02:42:47;;;;;;;39.00;22.23;;;;;;;;;;5070430;28;20024;-82
2021/11/12 02:45:12;;;;;;;37.75;22.02;;;;;;;;;;5056972;28;20028;-84
2021/11/12 02:47:38;;;;;;;37.55;21.55;;;;;;;;;;5056152;28;20073;-82
2021/11/12 02:50:03;;;;;;;37.28;22.30;;;;;;;;;;5054287;28;20082;-82
2021/11/12 02:52:29;;;;;;;38.13;21.67;;;;;;;;;;5054873;28;20025;-81
2021/11/12 02:54:54;;;;;;;35.20;20.98;;;;;;;;;;5063886;28;20453;-82
2021/11/12 02:57:22;;;;;;;40.75;22.23;;;;;;;;;;5069576;28;20367;-84
2021/11/12 02:59:48;;;;;;;40.08;21.63;;;;;;;;;;5075402;28;20028;-81
2021/11/12 03:02:14;;;;;;;35.65;21.20;;;;;;;;;;5072269;28;20438;-83
2021/11/12 03:04:40;;;;;;;38.78;21.88;;;;;;;;;;5058001;28;20078;-81
2021/11/12 03:07:06;;;;;;;38.03;20.23;;;;;;;;;;5044460;28;20069;-82
2021/11/12 03:09:33;;;;;;;33.40;20.40;;;;;;;;;;5035585;28;20186;-83
2021/11/12 03:12:00;;;;;;;38.13;21.33;;;;;;;;;;5047646;28;20052;-84
2021/11/12 03:14:26;;;;;;;36.65;21.77;;;;;;;;;;5051522;28;20024;-83
2021/11/12 03:16:52;;;;;;;37.20;21.63;;;;;;;;;;5052009;28;20060;-82
2021/11/12 03:19:20;;;;;;;38.13;22.98;;;;;;;;;;5037032;28;20051;-82
2021/11/12 03:21:46;;;;;;;37.83;21.50;;;;;;;;;;5040676;28;20023;-84
2021/11/12 03:27:33;;;;;;;38.88;20.95;;;;;;;;;;5051170;28;20037;-81
2021/11/12 03:59:59;;;;;;;42.10;23.33;;;;;;;;;;5048068;28;20033;-84
2021/11/12 04:02:33;;;;;;;44.35;24.17;;;;;;;;;;5048840;28;20098;-82
2021/11/12 04:18:57;;;;;;;41.10;22.73;;;;;;;;;;5061226;28;20035;-83
2021/11/12 05:43:37;;;;;;;39.47;22.85;;;;;;;;;;5061007;28;20021;-82
2021/11/12 05:56:44;;;;;;;39.25;21.52;;;;;;;;;;5062384;28;20051;-82
2021/11/12 05:59:10;;;;;;;42.17;22.42;;;;;;;;;;5063466;28;20024;-81
2021/11/12 06:01:37;;;;;;;36.88;20.83;;;;;;;;;;5042884;28;20101;-82
2021/11/12 06:04:04;;;;;;;39.70;21.90;;;;;;;;;;5064389;28;20021;-83
2021/11/12 06:06:30;;;;;;;40.25;21.30;;;;;;;;;;5046787;28;20441;-83
2021/11/12 06:08:56;;;;;;;35.00;21.40;;;;;;;;;;5048327;28;20020;-83
2021/11/12 06:11:23;;;;;;;35.72;20.65;;;;;;;;;;5067798;28;20081;-82
2021/11/12 06:13:48;;;;;;;35.65;21.23;;;;;;;;;;5054504;28;20024;-83
2021/11/12 06:16:14;;;;;;;38.08;21.33;;;;;;;;;;5063938;28;20029;-82
2021/11/12 06:18:39;;;;;;;40.15;20.42;;;;;;;;;;5070259;28;20785;-82
2021/11/12 06:21:04;;;;;;;37.35;21.50;;;;;;;;;;5054981;28;20039;-83
2021/11/12 06:23:30;;;;;;;36.63;21.75;;;;;;;;;;5055329;28;20028;-83
2021/11/12 06:25:55;;;;;;;39.38;21.75;;;;;;;;;;5067638;28;20035;-81
2021/11/12 06:28:21;;;;;;;35.38;21.63;;;;;;;;;;5052917;28;20068;-82
2021/11/12 06:30:48;;;;;;;38.40;21.52;;;;;;;;;;5052043;28;22034;-81
2021/11/12 06:33:14;;;;;;;35.97;20.20;;;;;;;;;;5068067;28;20024;-82
2021/11/12 06:35:39;;;;;;;37.83;20.90;;;;;;;;;;5049945;28;20050;-82
2021/11/12 06:38:13;;;;;;;32.03;20.23;;;;;;;;;;5046215;28;20029;-82
2021/11/12 06:40:38;;;;;;;36.88;21.10;;;;;;;;;;5054009;28;20078;-81
2021/11/12 06:43:20;;;;;;;36.28;20.17;;;;;;;;;;5051852;28;20047;-82
2021/11/12 06:51:18;;;;;;;32.90;20.60;;;;;;;;;;5070337;28;20063;-82
2021/11/12 06:53:43;;;;;;;34.20;20.50;;;;;;;;;;5063410;28;20073;-81
2021/11/12 06:56:08;;;;;;;36.78;20.60;;;;;;;;;;5071921;28;20025;-84
2021/11/12 06:58:37;;;;;;;38.55;21.38;;;;;;;;;;5048833;28;20039;-82
2021/11/12 07:01:03;;;;;;;37.35;21.02;;;;;;;;;;5048988;28;20513;-82
2021/11/12 07:03:30;;;;;;;36.72;20.90;;;;;;;;;;5050298;28;20030;-80
2021/11/12 07:05:56;;;;;;;37.13;21.17;;;;;;;;;;5048417;28;20032;-80
2021/11/12 07:08:22;;;;;;;39.03;20.38;;;;;;;;;;5068444;28;20037;-82
2021/11/12 07:10:47;;;;;;;38.30;20.35;;;;;;;;;;5051374;28;20051;-82
2021/11/12 07:13:13;;;;;;;42.38;20.20;;;;;;;;;;5068043;28;20020;-81
2021/11/12 07:15:39;;;;;;;40.75;21.15;;;;;;;;;;5065327;28;20046;-83
2021/11/12 07:18:05;;;;;;;36.20;20.45;;;;;;;;;;5055916;28;20040;-81
2021/11/12 07:20:30;;;;;;;39.35;19.88;;;;;;;;;;5072799;28;20023;-81
2021/11/12 07:22:55;;;;;;;33.60;20.27;;;;;;;;;;5054847;28;20028;-80
2021/11/12 07:25:21;;;;;;;39.35;19.33;;;;;;;;;;5069775;28;20025;-82
2021/11/12 07:27:48;;;;;;;38.97;20.63;;;;;;;;;;5070209;28;20044;-79
2021/11/12 07:30:16;;;;;;;36.58;20.20;;;;;;;;;;5069597;28;20021;-89
2021/11/12 07:32:45;;;;;;;38.40;20.77;;;;;;;;;;5053020;28;20391;-85
2021/11/12 07:35:13;;;;;;;34.55;18.38;;;;;;;;;;5049508;28;20082;-78
2021/11/12 07:37:39;;;;;;;39.03;19.88;;;;;;;;;;5064425;28;20021;-82
2021/11/12 07:40:09;;;;;;;39.72;20.33;;;;;;;;;;5066303;28;20051;-82
2021/11/12 07:42:40;;;;;;;38.67;20.38;;;;;;;;;;5051074;28;20392;-82
2021/11/12 07:47:32;;;;;;;36.13;19.92;;;;;;;;;;5066614;28;20119;-81
2021/11/12 07:50:00;;;;;;;42.33;22.15;;;;;;;;;;5068750;28;20563;-83
2021/11/12 07:52:29;;;;;;;38.00;20.48;;;;;;;;;;5069083;28;20032;-84
2021/11/12 07:54:56;;;;;;;40.28;21.25;;;;;;;;;;5074060;28;20040;-81
2021/11/12 07:57:22;;;;;;;38.97;21.33;;;;;;;;;;5053104;28;20024;-81
2021/11/12 07:59:48;;;;;;;41.92;21.73;;;;;;;;;;5064914;28;20105;-80
2021/11/12 08:02:15;;;;;;;39.97;21.70;;;;;;;;;;5063925;28;20033;-80
2021/11/12 08:04:40;;;;;;;41.42;21.80;;;;;;;;;;5063082;28;20048;-81
2021/11/12 08:07:06;;;;;;;37.45;20.50;;;;;;;;;;5048260;28;20041;-81
2021/11/12 08:09:35;;;;;;;36.55;20.52;;;;;;;;;;5067926;28;20047;-80
2021/11/12 08:12:19;;;;;;;38.53;21.05;;;;;;;;;;5065966;28;20028;-85
2021/11/12 08:17:22;;;;;;;40.47;21.48;;;;;;;;;;5073950;28;20100;-80
2021/11/12 08:20:02;;;;;;;39.03;20.67;;;;;;;;;;5056260;28;20028;-81
2021/11/12 08:25:16;;;;;;;41.58;22.02;;;;;;;;;;5071008;28;20029;-81
2021/11/12 08:38:41;;;;;;;44.17;22.73;;;;;;;;;;5063062;28;20032;-84
2021/11/12 08:41:25;;;;;;;46.17;22.42;;;;;;;;;;5055019;28;20441;-81
2021/11/12 08:44:10;;;;;;;33.38;20.50;;;;;;;;;;5065642;28;20372;-80
2021/11/12 08:46:41;;;;;;;37.67;20.50;;;;;;;;;;5054918;28;20024;-80
2021/11/12 08:49:16;;;;;;;39.00;21.42;;;;;;;;;;5070173;28;20048;-80
2021/11/12 08:51:42;;;;;;;38.10;21.98;;;;;;;;;;5066250;28;20105;-83
2021/11/12 08:54:08;;;;;;;39.78;22.30;;;;;;;;;;5055889;28;20114;-82
2021/11/12 08:56:36;;;;;;;41.65;21.75;;;;;;;;;;5067483;28;20028;-80
2021/11/12 08:59:03;;;;;;;40.58;22.70;;;;;;;;;;5067536;28;20039;-84
2021/11/12 09:01:29;;;;;;;40.45;22.85;;;;;;;;;;5051911;28;20035;-80
2021/11/12 09:03:54;;;;;;;37.85;21.65;;;;;;;;;;5067587;28;20028;-80
2021/11/12 09:06:22;;;;;;;42.05;22.55;;;;;;;;;;5070416;28;20550;-81
2021/11/12 09:08:48;;;;;;;41.90;21.95;;;;;;;;;;5052421;28;20383;-80
2021/11/12 09:11:13;;;;;;;38.33;22.52;;;;;;;;;;5050576;28;20103;-80
2021/11/12 09:13:44;;;;;;;38.97;22.35;;;;;;;;;;5064388;28;20599;-84
2021/11/12 09:16:14;;;;;;;42.42;23.95;;;;;;;;;;5055263;28;20064;-83
2021/11/12 09:18:42;;;;;;;40.15;22.73;;;;;;;;;;5048437;28;20433;-80
2021/11/12 09:21:09;;;;;;;39.28;21.75;;;;;;;;;;5067439;28;20023;-84
2021/11/12 09:23:34;;;;;;;38.33;20.23;;;;;;;;;;5050021;28;20033;-81
2021/11/12 09:26:02;;;;;;;36.22;21.30;;;;;;;;;;5067136;28;20028;-81
2021/11/12 09:28:27;;;;;;;39.22;21.55;;;;;;;;;;5064762;28;20027;-80
2021/11/12 09:30:53;;;;;;;34.28;20.92;;;;;;;;;;5064162;28;20123;-84
2021/11/12 09:33:18;;;;;;;33.53;21.02;;;;;;;;;;5064453;28;20029;-80
2021/11/12 09:35:44;;;;;;;30.52;19.55;;;;;;;;;;5053667;28;20020;-84
2021/11/12 09:38:10;;;;;;;32.72;20.38;;;;;;;;;;5043698;28;20032;-83
2021/11/12 09:40:36;;;;;;;36.20;19.92;;;;;;;;;;5068154;28;20020;-80
2021/11/12 09:43:02;;;;;;;35.60;19.45;;;;;;;;;;5074059;28;20082;-80
2021/11/12 09:45:27;;;;;;;34.20;18.80;;;;;;;;;;5049879;28;20035;-83
2021/11/12 09:47:54;;;;;;;32.30;19.05;;;;;;;;;;5055013;28;20058;-80
2021/11/12 09:50:25;;;;;;;34.30;19.08;;;;;;;;;;5048827;28;20025;-81
2021/11/12 09:52:50;;;;;;;31.95;19.45;;;;;;;;;;5064369;28;20036;-80
2021/11/12 09:55:17;;;;;;;34.30;20.30;;;;;;;;;;5052863;28;20024;-79
2021/11/12 09:57:43;;;;;;;34.05;20.13;;;;;;;;;;5063896;28;20471;-82
2021/11/12 10:00:15;;;;;;;31.83;20.83;;;;;;;;;;5064427;28;20035;-80
2021/11/12 10:02:44;;;;;;;30.77;18.90;;;;;;;;;;5050302;28;20033;-80
2021/11/12 10:05:12;;;;;;;32.83;20.40;;;;;;;;;;5060684;28;20095;-80
2021/11/12 10:07:38;;;;;;;34.20;20.55;;;;;;;;;;5045498;28;20067;-80
2021/11/12 10:10:07;;;;;;;35.80;20.05;;;;;;;;;;5065503;28;20037;-80
2021/11/12 10:12:41;;;;;;;35.05;20.85;;;;;;;;;;5049626;28;20534;-83
2021/11/12 10:15:15;;;;;;;34.05;19.65;;;;;;;;;;5062804;28;20027;-83
2021/11/12 10:17:41;;;;;;;32.05;19.25;;;;;;;;;;5065526;28;20754;-81
2021/11/12 10:20:09;;;;;;;32.38;19.27;;;;;;;;;;5049324;28;20017;-83
2021/11/12 10:22:38;;;;;;;35.50;20.25;;;;;;;;;;5070949;28;20047;-80
2021/11/12 10:25:06;;;;;;;31.85;20.25;;;;;;;;;;5055061;28;20036;-81
2021/11/12 10:27:34;;;;;;;35.08;20.60;;;;;;;;;;5066357;28;20024;-81
2021/11/12 10:30:08;;;;;;;34.13;20.45;;;;;;;;;;5055877;28;20173;-80
2021/11/12 10:32:35;;;;;;;32.72;20.45;;;;;;;;;;5058352;28;20021;-83
2021/11/12 10:35:08;;;;;;;33.80;20.77;;;;;;;;;;5053861;28;20059;-80
2021/11/12 10:37:35;;;;;;;29.30;19.00;;;;;;;;;;5062516;28;20036;-80
2021/11/12 10:40:07;;;;;;;37.45;20.35;;;;;;;;;;5062328;28;20024;-84
2021/11/12 10:42:38;;;;;;;33.60;20.90;;;;;;;;;;5050563;28;20025;-83
2021/11/12 10:45:16;;;;;;;31.02;19.98;;;;;;;;;;5064832;28;20399;-80
2021/11/12 10:47:51;;;;;;;33.38;20.67;;;;;;;;;;5051625;28;20472;-84
2021/11/12 10:50:18;;;;;;;30.92;19.13;;;;;;;;;;5060179;28;20095;-81
2021/11/12 10:52:44;;;;;;;32.33;20.27;;;;;;;;;;5058649;28;20024;-84
2021/11/12 10:55:17;;;;;;;31.20;20.40;;;;;;;;;;5060408;28;20032;-80
2021/11/12 10:57:50;;;;;;;33.20;20.73;;;;;;;;;;5065513;28;20439;-80
2021/11/12 11:00:26;;;;;;;30.80;19.83;;;;;;;;;;5055487;28;20391;-80
2021/11/12 11:02:58;;;;;;;34.30;20.77;;;;;;;;;;5064352;28;20032;-80
2021/11/12 11:05:26;;;;;;;33.25;21.33;;;;;;;;;;5067755;28;20023;-81
2021/11/12 11:08:15;;;;;;;30.42;19.10;;;;;;;;;;5057323;28;20057;-83
2021/11/12 11:10:47;;;;;;;33.38;20.35;;;;;;;;;;5042048;28;20558;-80
2021/11/12 11:13:16;;;;;;;33.03;20.30;;;;;;;;;;5035591;28;20029;-80
2021/11/12 11:15:51;;;;;;;33.50;20.52;;;;;;;;;;5051983;28;20541;-84
2021/11/12 11:18:27;;;;;;;32.95;20.90;;;;;;;;;;5051821;28;20040;-84
2021/11/12 11:21:27;;;;;;;30.40;19.55;;;;;;;;;;5045309;28;20048;-80
2021/11/12 11:24:08;;;;;;;33.15;19.85;;;;;;;;;;5049274;28;20090;-80
2021/11/12 11:26:48;;;;;;;30.73;19.65;;;;;;;;;;5051730;28;20021;-80
2021/11/12 11:29:16;;;;;;;30.10;19.88;;;;;;;;;;5035816;28;20033;-81
2021/11/12 11:31:42;;;;;;;31.75;19.35;;;;;;;;;;5037865;28;20061;-80
2021/11/12 11:34:07;;;;;;;31.05;19.55;;;;;;;;;;5051624;28;20086;-80
2021/11/12 11:36:40;;;;;;;30.67;19.92;;;;;;;;;;5051393;28;20491;-81
2021/11/12 11:39:08;;;;;;;30.33;19.17;;;;;;;;;;5049049;28;20025;-82
2021/11/12 11:41:34;;;;;;;31.77;19.63;;;;;;;;;;5034805;28;20029;-80
2021/11/12 11:44:00;;;;;;;30.73;19.88;;;;;;;;;;5050301;28;20028;-80
2021/11/12 11:46:28;;;;;;;28.45;19.42;;;;;;;;;;5036801;28;20103;-80
2021/11/12 11:48:57;;;;;;;31.20;19.02;;;;;;;;;;5034129;28;20046;-80
2021/11/12 11:51:35;;;;;;;28.23;18.45;;;;;;;;;;5034177;28;22415;-83
2021/11/12 11:54:10;;;;;;;27.77;18.38;;;;;;;;;;5044310;28;20060;-84
2021/11/12 11:56:38;;;;;;;29.95;18.00;;;;;;;;;;5034866;28;20021;-81
2021/11/12 11:59:28;;;;;;;31.50;18.88;;;;;;;;;;5036306;28;20475;-81
2021/11/12 12:02:03;;;;;;;31.33;19.33;;;;;;;;;;5045912;28;20435;-81
2021/11/12 12:04:36;;;;;;;27.70;18.30;;;;;;;;;;5053928;28;20029;-81
2021/11/12 12:07:02;;;;;;;29.02;18.73;;;;;;;;;;5050873;28;20044;-80
2021/11/12 12:09:59;;;;;;;30.95;19.17;;;;;;;;;;5061943;28;20021;-80
2021/11/12 12:12:30;;;;;;;30.77;19.67;;;;;;;;;;5048555;28;20031;-80
2021/11/12 12:15:17;;;;;;;31.38;18.88;;;;;;;;;;5060717;28;20039;-82
2021/11/12 12:17:46;;;;;;;29.77;19.33;;;;;;;;;;5069978;28;20020;-81
2021/11/12 12:20:19;;;;;;;29.83;18.60;;;;;;;;;;5052833;28;20024;-85
2021/11/12 13:22:39;;;;;;;31.30;20.55;;;;;;;;;;5063212;28;20380;-85
2021/11/12 13:25:06;;;;;;;35.30;21.67;;;;;;;;;;5065353;28;20033;-81
2021/11/12 13:27:32;;;;;;;33.65;21.60;;;;;;;;;;5062443;28;20021;-82
2021/11/12 13:29:57;;;;;;;33.35;21.25;;;;;;;;;;5057899;28;20472;-84
2021/11/12 13:32:23;;;;;;;36.60;22.55;;;;;;;;;;5048827;28;20024;-80
2021/11/12 13:34:48;;;;;;;33.15;20.70;;;;;;;;;;5069870;28;20032;-81
2021/11/12 13:37:23;;;;;;;35.58;21.77;;;;;;;;;;5043239;28;20043;-80
2021/11/12 13:40:11;;;;;;;35.90;21.60;;;;;;;;;;5062530;28;20070;-82
2021/11/12 13:42:38;;;;;;;33.47;21.40;;;;;;;;;;5067057;28;20024;-81
2021/11/12 13:45:23;;;;;;;33.80;21.25;;;;;;;;;;5047599;28;20036;-81
2021/11/12 13:48:01;;;;;;;34.47;22.15;;;;;;;;;;5067218;28;20029;-81
2021/11/12 13:50:27;;;;;;;33.33;22.45;;;;;;;;;;5051927;28;20651;-83
2021/11/12 13:52:52;;;;;;;36.58;21.50;;;;;;;;;;5058658;28;20032;-82
2021/11/12 13:55:20;;;;;;;33.80;22.33;;;;;;;;;;5060216;28;20060;-81
2021/11/12 13:57:57;;;;;;;34.83;21.73;;;;;;;;;;5047585;28;20037;-81
2021/11/12 14:00:26;;;;;;;32.55;20.75;;;;;;;;;;5047654;28;20044;-81
2021/11/12 14:03:05;;;;;;;34.28;21.92;;;;;;;;;;5049727;28;20028;-81
2021/11/12 14:05:32;;;;;;;35.95;22.13;;;;;;;;;;5051331;28;20066;-84
2021/11/12 14:08:12;;;;;;;32.85;21.77;;;;;;;;;;5048558;28;20101;-81
2021/11/12 14:10:47;;;;;;;36.42;23.95;;;;;;;;;;5051413;28;20796;-83
2021/11/12 14:13:16;;;;;;;34.72;23.33;;;;;;;;;;5063714;28;20036;-81
2021/11/12 14:16:07;;;;;;;34.42;22.08;;;;;;;;;;5066079;28;20058;-81
2021/11/12 14:18:51;;;;;;;35.97;21.80;;;;;;;;;;5043510;28;20471;-81
2021/11/12 14:21:29;;;;;;;35.97;22.20;;;;;;;;;;5064451;28;20024;-82
2021/11/12 14:26:32;;;;;;;34.70;22.33;;;;;;;;;;5063742;28;20039;-80
2021/11/12 14:29:16;;;;;;;32.78;20.50;;;;;;;;;;5049270;28;20032;-82
2021/11/12 14:31:48;;;;;;;;;;;;;;;;;;5053992;28;20043;-84
2021/11/12 14:34:39;;;;;;;33.77;20.00;;;;;;;;;;5049739;28;19916;-85
2021/11/12 14:37:20;;;;;;;32.55;20.98;;;;;;;;;;5067739;28;20028;-81
2021/11/12 14:40:11;;;;;;;31.15;20.45;;;;;;;;;;5069011;28;20021;-85
2021/11/12 14:42:54;;;;;;;32.03;20.02;;;;;;;;;;5068730;28;20027;-82
2021/11/12 14:45:28;;;;;;;28.88;19.67;;;;;;;;;;5050993;28;20083;-81
2021/11/12 14:48:01;;;;;;;30.23;20.00;;;;;;;;;;5052552;28;20043;-85
2021/11/12 14:50:56;;;;;;;34.20;20.08;;;;;;;;;;5051817;28;20036;-85
2021/11/12 14:56:32;;;;;;;32.60;19.85;;;;;;;;;;5068795;28;20025;-81
2021/11/12 14:58:59;;;;;;;32.42;21.05;;;;;;;;;;5064679;28;20042;-84
2021/11/12 15:01:27;;;;;;;32.80;19.83;;;;;;;;;;5063765;28;20369;-85
2021/11/12 15:03:53;;;;;;;35.83;21.02;;;;;;;;;;5067205;28;20032;-86
2021/11/12 15:06:22;;;;;;;33.20;20.92;;;;;;;;;;5052845;28;20139;-80
2021/11/12 15:08:51;;;;;;;27.70;19.05;;;;;;;;;;5066627;28;20040;-82
2021/11/12 15:11:20;;;;;;;31.77;19.67;;;;;;;;;;5068445;28;20116;-81
2021/11/12 15:13:47;;;;;;;32.60;20.27;;;;;;;;;;5051534;28;20029;-81
2021/11/12 15:16:19;;;;;;;35.47;21.02;;;;;;;;;;5059938;28;20446;-81
2021/11/12 15:18:44;;;;;;;30.80;19.60;;;;;;;;;;5054954;28;20028;-80
2021/11/12 15:21:17;;;;;;;32.22;19.90;;;;;;;;;;5067851;28;20025;-82
2021/11/12 15:24:01;;;;;;;30.23;19.98;;;;;;;;;;5065922;28;20029;-81
2021/11/12 15:26:35;;;;;;;28.50;18.92;;;;;;;;;;5051169;28;20392;-82
2021/11/12 15:29:08;;;;;;;33.63;19.85;;;;;;;;;;5067506;28;20036;-81
2021/11/12 15:34:02;;;;;;;33.40;19.60;;;;;;;;;;5061674;28;20458;-80
2021/11/12 15:36:27;;;;;;;29.83;19.73;;;;;;;;;;5064914;28;20021;-80
2021/11/12 15:44:02;;;;;;;32.63;19.27;;;;;;;;;;5062337;28;20036;-80
2021/11/12 15:46:31;;;;;;;32.85;18.92;;;;;;;;;;5071154;28;20055;-81
2021/11/12 15:48:57;;;;;;;29.02;17.85;;;;;;;;;;5056108;28;20021;-80
2021/11/12 15:54:14;;;;;;;28.88;18.48;;;;;;;;;;5061291;28;20626;-80
2021/11/12 15:56:53;;;;;;;27.35;17.73;;;;;;;;;;5062971;28;20115;-81
2021/11/12 15:59:25;;;;;;;26.80;17.92;;;;;;;;;;5045159;28;20027;-82
2021/11/12 16:10:00;;;;;;;30.67;18.77;;;;;;;;;;5064432;28;20021;-80
2021/11/12 16:12:39;;;;;;;29.95;19.10;;;;;;;;;;5044434;28;20028;-82
2021/11/12 16:17:43;;;;;;;28.80;18.30;;;;;;;;;;5061630;28;20052;-83
2021/11/12 16:20:37;;;;;;;26.88;17.63;;;;;;;;;;5063876;28;20028;-81
2021/11/12 16:23:40;;;;;;;33.08;19.23;;;;;;;;;;5044624;28;20050;-81
2021/11/12 16:26:17;;;;;;;28.52;18.65;;;;;;;;;;5050895;28;20036;-83
2021/11/12 16:29:06;;;;;;;31.25;18.38;;;;;;;;;;5062460;28;20475;-81
2021/11/12 16:31:35;;;;;;;32.08;19.02;;;;;;;;;;5059570;28;20364;-83
2021/11/12 16:34:07;;;;;;;29.02;17.70;;;;;;;;;;5063248;28;20123;-81
2021/11/12 16:36:33;;;;;;;30.25;18.55;;;;;;;;;;5064265;28;20487;-83
2021/11/12 16:39:00;;;;;;;29.02;18.15;;;;;;;;;;5046543;28;20121;-83
2021/11/12 16:44:44;;;;;;;27.65;16.77;;;;;;;;;;5023805;28;20438;-83
2021/11/12 16:53:51;;;;;;;;;;;;;;;;;;;;;
2021/11/12 16:56:38;;;;;;;29.27;16.50;;;;;;;;;;5068936;28;20029;-85
2021/11/12 17:09:21;;;;;;;25.35;15.95;;;;;;;;;;4969873;28;20089;-81
2021/11/12 17:15:01;;;;;;;25.23;15.90;;;;;;;;;;5065759;28;20082;-81
2021/11/12 17:47:58;;;;;;;21.60;14.63;;;;;;;;;;5063946;28;20036;-82
2021/11/12 17:50:34;;;;;;;22.20;13.18;;;;;;;;;;5068803;28;20492;-80
2021/11/12 18:04:38;;;;;;;18.20;12.77;;;;;;;;;;5069717;28;20059;-82
2021/11/12 21:46:58;;;;;;;20.08;11.55;;;;;;;;;;4987973;28;21009;-82
2021/11/12 21:49:23;;;;;;;27.13;12.57;;;;;;;;;;5033955;28;20132;-82
2021/11/12 21:51:49;;;;;;;20.48;12.05;;;;;;;;;;5059291;28;20040;-84
2021/11/12 21:54:14;;;;;;;18.40;12.57;;;;;;;;;;5036489;28;20055;-82
2021/11/12 21:56:40;;;;;;;19.92;13.00;;;;;;;;;;5053997;28;20575;-81
2021/11/12 21:59:06;;;;;;;20.67;12.57;;;;;;;;;;5041080;28;20031;-85
2021/11/12 22:01:32;;;;;;;21.38;12.80;;;;;;;;;;5038516;28;20082;-82
2021/11/12 22:03:58;;;;;;;22.15;13.10;;;;;;;;;;5042936;28;20460;-85
2021/11/12 22:06:24;;;;;;;19.95;12.52;;;;;;;;;;5050145;28;20029;-81
2021/11/12 22:08:50;;;;;;;20.60;12.48;;;;;;;;;;5056298;28;20064;-84
2021/11/12 22:11:16;;;;;;;21.92;12.82;;;;;;;;;;5056521;28;20411;-83
2021/11/12 22:13:42;;;;;;;19.83;11.50;;;;;;;;;;5054531;28;20058;-81
2021/11/12 22:16:10;;;;;;;18.63;12.25;;;;;;;;;;5054933;28;20028;-83
2021/11/12 22:18:36;;;;;;;20.90;12.18;;;;;;;;;;5042345;28;20392;-81
2021/11/12 22:21:02;;;;;;;19.55;12.20;;;;;;;;;;5060680;28;20782;-83
2021/11/12 22:23:28;;;;;;;22.48;13.50;;;;;;;;;;5040846;28;20028;-80
2021/11/12 22:25:54;;;;;;;19.17;12.75;;;;;;;;;;5053208;28;20127;-81
2021/11/12 22:28:20;;;;;;;21.50;13.10;;;;;;;;;;5044929;28;20159;-83
2021/11/12 22:30:46;;;;;;;18.48;11.95;;;;;;;;;;5044647;28;20123;-81
2021/11/12 22:33:13;;;;;;;19.50;12.63;;;;;;;;;;5046580;28;20035;-81
2021/11/12 22:35:39;;;;;;;18.92;12.13;;;;;;;;;;5047851;28;20024;-85
2021/11/12 22:38:06;;;;;;;19.90;12.52;;;;;;;;;;5057275;28;20040;-80
2021/11/12 22:40:32;;;;;;;21.25;12.55;;;;;;;;;;5059367;28;20033;-81
2021/11/12 22:42:58;;;;;;;19.70;12.35;;;;;;;;;;5048410;28;20028;-80
2021/11/12 22:45:23;;;;;;;19.45;12.55;;;;;;;;;;5061108;28;20085;-80
2021/11/12 22:47:48;;;;;;;20.95;13.07;;;;;;;;;;5058878;28;20115;-86
2021/11/12 22:50:14;;;;;;;19.52;12.90;;;;;;;;;;5048629;28;20040;-84
2021/11/12 22:52:41;;;;;;;23.30;13.10;;;;;;;;;;5046606;28;20086;-81
2021/11/12 22:55:07;;;;;;;23.55;13.07;;;;;;;;;;5050423;28;20073;-81
2021/11/12 22:57:33;;;;;;;34.85;14.10;;;;;;;;;;5060648;28;20438;-81
2021/11/12 22:59:59;;;;;;;20.52;13.52;;;;;;;;;;5047433;28;20020;-86
2021/11/12 23:02:24;;;;;;;24.08;13.15;;;;;;;;;;5064061;28;20036;-81
2021/11/12 23:04:49;;;;;;;23.70;14.07;;;;;;;;;;5046239;28;20537;-85
2021/11/12 23:07:15;;;;;;;26.80;14.98;;;;;;;;;;5062549;28;20056;-80
2021/11/12 23:09:41;;;;;;;22.13;14.43;;;;;;;;;;5044197;28;20500;-85
2021/11/12 23:12:07;;;;;;;22.38;13.43;;;;;;;;;;5046132;28;20033;-81
2021/11/12 23:14:33;;;;;;;25.27;13.43;;;;;;;;;;5041972;28;20037;-85
2021/11/12 23:16:58;;;;;;;23.30;14.10;;;;;;;;;;5031010;28;20029;-82
2021/11/12 23:19:24;;;;;;;24.83;14.23;;;;;;;;;;5043242;28;20033;-82
2021/11/12 23:21:49;;;;;;;20.67;13.93;;;;;;;;;;5042473;28;20562;-86
2021/11/12 23:24:14;;;;;;;19.58;13.15;;;;;;;;;;5022471;28;20053;-81
2021/11/12 23:26:40;;;;;;;24.25;14.52;;;;;;;;;;5039399;28;20610;-80
2021/11/12 23:29:05;;;;;;;21.48;13.15;;;;;;;;;;5044565;28;20037;-80
2021/11/12 23:31:32;;;;;;;21.98;13.77;;;;;;;;;;5029576;28;20127;-80
2021/11/12 23:33:58;;;;;;;20.00;13.18;;;;;;;;;;5040804;28;20031;-80
2021/11/12 23:36:23;;;;;;;23.95;14.65;;;;;;;;;;5038382;28;20104;-82
2021/11/12 23:38:49;;;;;;;24.02;15.07;;;;;;;;;;5042070;28;20537;-80
2021/11/12 23:41:18;;;;;;;23.67;14.40;;;;;;;;;;5025555;28;21838;-81
2021/11/12 23:43:44;;;;;;;24.35;13.75;;;;;;;;;;5039661;28;20031;-85
2021/11/12 23:46:10;;;;;;;21.58;14.30;;;;;;;;;;5025186;28;20036;-80
2021/11/12 23:48:35;;;;;;;22.60;13.95;;;;;;;;;;5030286;28;20029;-82
2021/11/12 23:51:01;;;;;;;24.83;14.48;;;;;;;;;;5043650;28;20052;-80
2021/11/12 23:53:26;;;;;;;25.05;14.25;;;;;;;;;;5032074;28;20079;-85
2021/11/12 23:55:52;;;;;;;24.48;14.85;;;;;;;;;;5041057;28;20048;-82
2021/11/12 23:58:17;;;;;;;22.80;14.68;;;;;;;;;;5040217;28;20033;-80
